sensor_id;sensor_type;location;lat;lon;timestamp;temperature;humidity
48994;DHT22;34804;49.214;12.276;2024-03-07T00:00:37;3.10;79.60
48994;DHT22;34804;49.214;12.276;2024-03-07T00:03:04;3.00;79.70
48994;DHT22;34804;49.214;12.276;2024-03-07T00:05:31;2.90;80.00
48994;DHT22;34804;49.214;12.276;2024-03-07T00:07:58;2.80;80.50
48994;DHT22;34804;49.214;12.276;2024-03-07T00:10:25;2.80;80.70
48994;DHT22;34804;49.214;12.276;2024-03-07T00:12:52;2.80;80.90
48994;DHT22;34804;49.214;12.276;2024-03-07T00:15:19;2.80;81.00
48994;DHT22;34804;49.214;12.276;2024-03-07T00:17:47;2.70;81.30
48994;DHT22;34804;49.214;12.276;2024-03-07T00:20:15;2.60;81.80
48994;DHT22;34804;49.214;12.276;2024-03-07T00:22:45;2.50;81.80
48994;DHT22;34804;49.214;12.276;2024-03-07T00:25:12;2.50;81.90
48994;DHT22;34804;49.214;12.276;2024-03-07T00:27:41;2.50;81.90
48994;DHT22;34804;49.214;12.276;2024-03-07T00:30:08;2.40;82.00
48994;DHT22;34804;49.214;12.276;2024-03-07T00:32:35;2.40;82.00
48994;DHT22;34804;49.214;12.276;2024-03-07T00:35:04;2.40;82.30
48994;DHT22;34804;49.214;12.276;2024-03-07T00:37:31;2.30;82.60
48994;DHT22;34804;49.214;12.276;2024-03-07T00:39:58;2.20;82.90
48994;DHT22;34804;49.214;12.276;2024-03-07T00:42:25;2.20;83.00
48994;DHT22;34804;49.214;12.276;2024-03-07T00:44:54;2.10;83.00
48994;DHT22;34804;49.214;12.276;2024-03-07T00:47:20;2.10;83.20
48994;DHT22;34804;49.214;12.276;2024-03-07T00:49:47;2.10;83.20
48994;DHT22;34804;49.214;12.276;2024-03-07T00:52:14;2.00;83.40
48994;DHT22;34804;49.214;12.276;2024-03-07T00:54:42;1.90;83.50
48994;DHT22;34804;49.214;12.276;2024-03-07T00:57:09;1.90;83.70
48994;DHT22;34804;49.214;12.276;2024-03-07T00:59:36;1.80;83.80
48994;DHT22;34804;49.214;12.276;2024-03-07T01:02:03;1.80;84.00
48994;DHT22;34804;49.214;12.276;2024-03-07T01:04:30;1.70;84.00
48994;DHT22;34804;49.214;12.276;2024-03-07T01:07:01;1.60;84.30
48994;DHT22;34804;49.214;12.276;2024-03-07T01:09:28;1.60;84.30
48994;DHT22;34804;49.214;12.276;2024-03-07T01:11:55;1.50;84.00
48994;DHT22;34804;49.214;12.276;2024-03-07T01:14:22;1.40;84.20
48994;DHT22;34804;49.214;12.276;2024-03-07T01:16:50;1.40;84.40
48994;DHT22;34804;49.214;12.276;2024-03-07T01:19:17;1.40;84.50
48994;DHT22;34804;49.214;12.276;2024-03-07T01:21:44;1.30;84.30
48994;DHT22;34804;49.214;12.276;2024-03-07T01:24:11;1.30;84.30
48994;DHT22;34804;49.214;12.276;2024-03-07T01:26:38;1.20;84.60
48994;DHT22;34804;49.214;12.276;2024-03-07T01:29:05;1.20;85.20
48994;DHT22;34804;49.214;12.276;2024-03-07T01:31:33;1.30;85.00
48994;DHT22;34804;49.214;12.276;2024-03-07T01:34:01;1.30;85.00
48994;DHT22;34804;49.214;12.276;2024-03-07T01:36:28;1.30;85.10
48994;DHT22;34804;49.214;12.276;2024-03-07T01:38:55;1.30;85.10
48994;DHT22;34804;49.214;12.276;2024-03-07T01:41:22;1.30;85.00
48994;DHT22;34804;49.214;12.276;2024-03-07T01:43:49;1.30;85.10
48994;DHT22;34804;49.214;12.276;2024-03-07T01:46:15;1.20;84.90
48994;DHT22;34804;49.214;12.276;2024-03-07T01:48:43;1.10;84.70
48994;DHT22;34804;49.214;12.276;2024-03-07T01:51:10;0.90;84.30
48994;DHT22;34804;49.214;12.276;2024-03-07T01:53:37;0.80;86.00
48994;DHT22;34804;49.214;12.276;2024-03-07T01:56:05;0.80;85.60
48994;DHT22;34804;49.214;12.276;2024-03-07T01:58:33;0.70;85.20
48994;DHT22;34804;49.214;12.276;2024-03-07T02:01:01;0.60;85.30
48994;DHT22;34804;49.214;12.276;2024-03-07T02:03:28;0.60;85.50
48994;DHT22;34804;49.214;12.276;2024-03-07T02:05:56;0.50;85.70
48994;DHT22;34804;49.214;12.276;2024-03-07T02:08:23;0.40;86.00
48994;DHT22;34804;49.214;12.276;2024-03-07T02:10:50;0.50;86.30
48994;DHT22;34804;49.214;12.276;2024-03-07T02:13:17;0.30;85.40
48994;DHT22;34804;49.214;12.276;2024-03-07T02:15:45;0.30;86.20
48994;DHT22;34804;49.214;12.276;2024-03-07T02:18:11;0.20;86.20
48994;DHT22;34804;49.214;12.276;2024-03-07T02:20:44;0.10;86.50
48994;DHT22;34804;49.214;12.276;2024-03-07T02:23:11;0.10;87.00
48994;DHT22;34804;49.214;12.276;2024-03-07T02:25:38;0.10;87.20
48994;DHT22;34804;49.214;12.276;2024-03-07T02:28:05;0.10;87.40
48994;DHT22;34804;49.214;12.276;2024-03-07T02:30:32;0.10;87.50
48994;DHT22;34804;49.214;12.276;2024-03-07T02:32:59;0.10;87.30
48994;DHT22;34804;49.214;12.276;2024-03-07T02:35:34;0.10;87.20
48994;DHT22;34804;49.214;12.276;2024-03-07T02:38:04;0.00;87.10
48994;DHT22;34804;49.214;12.276;2024-03-07T02:40:34;0.00;87.40
48994;DHT22;34804;49.214;12.276;2024-03-07T02:43:01;0.00;87.40
48994;DHT22;34804;49.214;12.276;2024-03-07T02:45:31;0.00;87.30
48994;DHT22;34804;49.214;12.276;2024-03-07T02:47:58;0.00;87.40
48994;DHT22;34804;49.214;12.276;2024-03-07T02:50:25;0.00;87.70
48994;DHT22;34804;49.214;12.276;2024-03-07T02:52:52;0.00;87.50
48994;DHT22;34804;49.214;12.276;2024-03-07T02:55:19;0.00;87.50
48994;DHT22;34804;49.214;12.276;2024-03-07T02:57:46;-3276.70;87.60
48994;DHT22;34804;49.214;12.276;2024-03-07T03:00:14;-3276.60;87.60
48994;DHT22;34804;49.214;12.276;2024-03-07T03:02:47;-3276.50;87.40
48994;DHT22;34804;49.214;12.276;2024-03-07T03:05:15;-3276.40;87.50
48994;DHT22;34804;49.214;12.276;2024-03-07T03:07:42;-3276.30;87.80
48994;DHT22;34804;49.214;12.276;2024-03-07T03:10:23;-3276.30;87.80
48994;DHT22;34804;49.214;12.276;2024-03-07T03:12:53;-3276.30;87.90
48994;DHT22;34804;49.214;12.276;2024-03-07T03:15:21;-3276.20;87.80
48994;DHT22;34804;49.214;12.276;2024-03-07T03:17:48;-3276.10;87.80
48994;DHT22;34804;49.214;12.276;2024-03-07T03:20:15;-3276.10;88.70
48994;DHT22;34804;49.214;12.276;2024-03-07T03:22:54;-3276.20;89.30
48994;DHT22;34804;49.214;12.276;2024-03-07T03:25:42;-3276.20;89.10
48994;DHT22;34804;49.214;12.276;2024-03-07T03:28:09;-3276.20;88.30
48994;DHT22;34804;49.214;12.276;2024-03-07T03:30:38;-3276.10;88.20
48994;DHT22;34804;49.214;12.276;2024-03-07T03:33:05;-3276.10;88.50
48994;DHT22;34804;49.214;12.276;2024-03-07T03:35:34;-3276.20;88.90
48994;DHT22;34804;49.214;12.276;2024-03-07T03:38:01;-3276.20;88.90
48994;DHT22;34804;49.214;12.276;2024-03-07T03:40:28;-3276.30;88.70
48994;DHT22;34804;49.214;12.276;2024-03-07T03:42:55;-3276.30;88.30
48994;DHT22;34804;49.214;12.276;2024-03-07T03:45:21;-3276.20;88.40
48994;DHT22;34804;49.214;12.276;2024-03-07T03:47:48;-3276.20;88.20
48994;DHT22;34804;49.214;12.276;2024-03-07T03:50:15;-3276.20;88.30
48994;DHT22;34804;49.214;12.276;2024-03-07T03:52:42;-3276.20;88.60
48994;DHT22;34804;49.214;12.276;2024-03-07T03:55:10;-3276.20;88.60
48994;DHT22;34804;49.214;12.276;2024-03-07T03:57:39;-3276.10;88.90
48994;DHT22;34804;49.214;12.276;2024-03-07T04:00:07;-3276.10;89.30
48994;DHT22;34804;49.214;12.276;2024-03-07T04:02:43;-3276.10;89.50
48994;DHT22;34804;49.214;12.276;2024-03-07T04:05:11;-3276.10;89.40
48994;DHT22;34804;49.214;12.276;2024-03-07T04:07:40;-3276.10;89.50
48994;DHT22;34804;49.214;12.276;2024-03-07T04:10:09;-3276.00;89.40
48994;DHT22;34804;49.214;12.276;2024-03-07T04:12:37;-3276.00;89.30
48994;DHT22;34804;49.214;12.276;2024-03-07T04:15:06;-3275.70;88.00
48994;DHT22;34804;49.214;12.276;2024-03-07T04:17:34;-3275.70;88.70
48994;DHT22;34804;49.214;12.276;2024-03-07T04:20:03;-3275.50;88.40
48994;DHT22;34804;49.214;12.276;2024-03-07T04:22:33;-3275.50;88.60
48994;DHT22;34804;49.214;12.276;2024-03-07T04:25:03;-3275.50;89.10
48994;DHT22;34804;49.214;12.276;2024-03-07T04:27:30;-3275.60;88.80
48994;DHT22;34804;49.214;12.276;2024-03-07T04:29:57;-3275.60;88.90
48994;DHT22;34804;49.214;12.276;2024-03-07T04:32:24;-3275.60;89.10
48994;DHT22;34804;49.214;12.276;2024-03-07T04:34:51;-3275.60;89.40
48994;DHT22;34804;49.214;12.276;2024-03-07T04:37:18;-3275.70;89.80
48994;DHT22;34804;49.214;12.276;2024-03-07T04:39:45;-3275.80;90.00
48994;DHT22;34804;49.214;12.276;2024-03-07T04:42:12;-3275.90;89.90
48994;DHT22;34804;49.214;12.276;2024-03-07T04:44:39;-3276.00;89.80
48994;DHT22;34804;49.214;12.276;2024-03-07T04:47:06;-3276.10;90.00
48994;DHT22;34804;49.214;12.276;2024-03-07T04:49:34;-3276.10;90.00
48994;DHT22;34804;49.214;12.276;2024-03-07T04:52:02;-3276.20;89.80
48994;DHT22;34804;49.214;12.276;2024-03-07T04:54:30;-3276.20;89.90
48994;DHT22;34804;49.214;12.276;2024-03-07T04:56:58;-3276.40;89.90
48994;DHT22;34804;49.214;12.276;2024-03-07T04:59:25;-3276.40;89.70
48994;DHT22;34804;49.214;12.276;2024-03-07T05:01:52;-3276.60;89.70
48994;DHT22;34804;49.214;12.276;2024-03-07T05:04:19;-3276.60;88.80
48994;DHT22;34804;49.214;12.276;2024-03-07T05:06:46;-3276.60;89.20
48994;DHT22;34804;49.214;12.276;2024-03-07T05:09:15;-3276.70;89.50
48994;DHT22;34804;49.214;12.276;2024-03-07T05:11:50;-3276.70;89.40
48994;DHT22;34804;49.214;12.276;2024-03-07T05:14:20;-3276.70;89.20
48994;DHT22;34804;49.214;12.276;2024-03-07T05:16:48;0.00;89.30
48994;DHT22;34804;49.214;12.276;2024-03-07T05:19:34;0.00;89.60
48994;DHT22;34804;49.214;12.276;2024-03-07T05:22:02;0.10;89.70
48994;DHT22;34804;49.214;12.276;2024-03-07T05:24:32;0.20;89.00
48994;DHT22;34804;49.214;12.276;2024-03-07T05:27:00;0.20;89.20
48994;DHT22;34804;49.214;12.276;2024-03-07T05:29:27;0.20;89.40
48994;DHT22;34804;49.214;12.276;2024-03-07T05:31:54;0.20;89.40
48994;DHT22;34804;49.214;12.276;2024-03-07T05:34:21;0.20;89.30
48994;DHT22;34804;49.214;12.276;2024-03-07T05:36:50;0.20;89.20
48994;DHT22;34804;49.214;12.276;2024-03-07T05:39:17;0.30;89.80
48994;DHT22;34804;49.214;12.276;2024-03-07T05:41:45;0.30;89.40
48994;DHT22;34804;49.214;12.276;2024-03-07T05:44:12;0.30;89.20
48994;DHT22;34804;49.214;12.276;2024-03-07T05:46:41;0.40;89.40
48994;DHT22;34804;49.214;12.276;2024-03-07T05:49:08;0.40;89.30
48994;DHT22;34804;49.214;12.276;2024-03-07T05:51:35;0.40;89.40
48994;DHT22;34804;49.214;12.276;2024-03-07T05:54:03;0.30;88.80
48994;DHT22;34804;49.214;12.276;2024-03-07T05:56:33;0.40;88.80
48994;DHT22;34804;49.214;12.276;2024-03-07T05:59:03;0.40;89.00
48994;DHT22;34804;49.214;12.276;2024-03-07T06:01:36;0.40;89.00
48994;DHT22;34804;49.214;12.276;2024-03-07T06:04:05;0.50;89.50
48994;DHT22;34804;49.214;12.276;2024-03-07T06:06:36;0.60;89.50
48994;DHT22;34804;49.214;12.276;2024-03-07T06:09:04;0.80;89.60
48994;DHT22;34804;49.214;12.276;2024-03-07T06:11:34;0.80;89.20
48994;DHT22;34804;49.214;12.276;2024-03-07T06:14:03;0.90;88.90
48994;DHT22;34804;49.214;12.276;2024-03-07T06:16:37;0.90;88.10
48994;DHT22;34804;49.214;12.276;2024-03-07T06:19:06;0.80;88.10
48994;DHT22;34804;49.214;12.276;2024-03-07T06:21:38;0.80;88.30
48994;DHT22;34804;49.214;12.276;2024-03-07T06:24:09;0.90;88.30
48994;DHT22;34804;49.214;12.276;2024-03-07T06:26:38;0.90;87.90
48994;DHT22;34804;49.214;12.276;2024-03-07T06:29:08;0.80;88.20
48994;DHT22;34804;49.214;12.276;2024-03-07T06:31:38;0.90;88.40
48994;DHT22;34804;49.214;12.276;2024-03-07T06:34:05;1.00;88.50
48994;DHT22;34804;49.214;12.276;2024-03-07T06:36:32;1.10;88.30
48994;DHT22;34804;49.214;12.276;2024-03-07T06:38:59;1.00;87.90
48994;DHT22;34804;49.214;12.276;2024-03-07T06:41:26;1.00;88.50
48994;DHT22;34804;49.214;12.276;2024-03-07T06:43:53;1.10;88.80
48994;DHT22;34804;49.214;12.276;2024-03-07T06:46:22;1.00;88.60
48994;DHT22;34804;49.214;12.276;2024-03-07T06:48:49;1.20;89.10
48994;DHT22;34804;49.214;12.276;2024-03-07T06:51:16;1.10;89.40
48994;DHT22;34804;49.214;12.276;2024-03-07T06:53:45;1.20;89.50
48994;DHT22;34804;49.214;12.276;2024-03-07T06:56:15;1.30;89.50
48994;DHT22;34804;49.214;12.276;2024-03-07T06:58:43;1.40;89.50
48994;DHT22;34804;49.214;12.276;2024-03-07T07:01:14;1.40;89.30
48994;DHT22;34804;49.214;12.276;2024-03-07T07:03:46;1.50;89.20
48994;DHT22;34804;49.214;12.276;2024-03-07T07:06:14;1.60;89.30
48994;DHT22;34804;49.214;12.276;2024-03-07T07:08:41;1.70;89.50
48994;DHT22;34804;49.214;12.276;2024-03-07T07:11:08;1.80;89.60
48994;DHT22;34804;49.214;12.276;2024-03-07T07:13:38;2.00;89.80
48994;DHT22;34804;49.214;12.276;2024-03-07T07:16:05;2.10;90.00
48994;DHT22;34804;49.214;12.276;2024-03-07T07:18:32;2.30;90.50
48994;DHT22;34804;49.214;12.276;2024-03-07T07:21:00;2.60;90.70
48994;DHT22;34804;49.214;12.276;2024-03-07T07:23:29;2.80;90.10
48994;DHT22;34804;49.214;12.276;2024-03-07T07:25:56;3.00;89.90
48994;DHT22;34804;49.214;12.276;2024-03-07T07:28:23;3.10;89.60
48994;DHT22;34804;49.214;12.276;2024-03-07T07:30:50;3.20;89.50
48994;DHT22;34804;49.214;12.276;2024-03-07T07:33:17;3.30;89.20
48994;DHT22;34804;49.214;12.276;2024-03-07T07:35:45;3.40;89.10
48994;DHT22;34804;49.214;12.276;2024-03-07T07:38:12;3.30;88.50
48994;DHT22;34804;49.214;12.276;2024-03-07T07:40:41;3.40;88.90
48994;DHT22;34804;49.214;12.276;2024-03-07T07:43:08;3.40;87.10
48994;DHT22;34804;49.214;12.276;2024-03-07T07:45:37;3.30;87.10
48994;DHT22;34804;49.214;12.276;2024-03-07T07:48:05;3.20;87.80
48994;DHT22;34804;49.214;12.276;2024-03-07T07:50:32;3.40;88.20
48994;DHT22;34804;49.214;12.276;2024-03-07T07:53:01;3.50;88.40
48994;DHT22;34804;49.214;12.276;2024-03-07T07:55:31;3.60;88.10
48994;DHT22;34804;49.214;12.276;2024-03-07T07:57:59;3.60;87.90
48994;DHT22;34804;49.214;12.276;2024-03-07T08:00:28;3.60;87.90
48994;DHT22;34804;49.214;12.276;2024-03-07T08:03:03;3.60;88.10
48994;DHT22;34804;49.214;12.276;2024-03-07T08:05:34;3.60;87.90
48994;DHT22;34804;49.214;12.276;2024-03-07T08:08:04;3.70;88.30
48994;DHT22;34804;49.214;12.276;2024-03-07T08:10:35;3.80;87.50
48994;DHT22;34804;49.214;12.276;2024-03-07T08:13:04;3.90;87.30
48994;DHT22;34804;49.214;12.276;2024-03-07T08:15:33;3.80;86.70
48994;DHT22;34804;49.214;12.276;2024-03-07T08:18:00;3.90;86.90
48994;DHT22;34804;49.214;12.276;2024-03-07T08:20:28;4.00;85.90
48994;DHT22;34804;49.214;12.276;2024-03-07T08:22:55;3.90;86.20
48994;DHT22;34804;49.214;12.276;2024-03-07T08:25:24;3.90;85.90
48994;DHT22;34804;49.214;12.276;2024-03-07T08:27:53;3.90;86.00
48994;DHT22;34804;49.214;12.276;2024-03-07T08:30:21;4.00;85.20
48994;DHT22;34804;49.214;12.276;2024-03-07T08:32:51;4.10;85.40
48994;DHT22;34804;49.214;12.276;2024-03-07T08:35:19;4.20;85.00
48994;DHT22;34804;49.214;12.276;2024-03-07T08:37:48;4.40;84.40
48994;DHT22;34804;49.214;12.276;2024-03-07T08:40:27;4.60;83.70
48994;DHT22;34804;49.214;12.276;2024-03-07T08:42:58;4.50;83.00
48994;DHT22;34804;49.214;12.276;2024-03-07T08:45:26;4.80;83.10
48994;DHT22;34804;49.214;12.276;2024-03-07T08:47:56;4.80;81.30
48994;DHT22;34804;49.214;12.276;2024-03-07T08:50:25;4.60;81.30
48994;DHT22;34804;49.214;12.276;2024-03-07T08:52:53;4.60;81.90
48994;DHT22;34804;49.214;12.276;2024-03-07T08:55:23;4.70;80.90
48994;DHT22;34804;49.214;12.276;2024-03-07T08:57:50;4.70;80.10
48994;DHT22;34804;49.214;12.276;2024-03-07T09:00:18;4.60;80.10
48994;DHT22;34804;49.214;12.276;2024-03-07T09:02:55;4.60;79.60
48994;DHT22;34804;49.214;12.276;2024-03-07T09:05:26;4.70;79.90
48994;DHT22;34804;49.214;12.276;2024-03-07T09:07:54;4.80;79.00
48994;DHT22;34804;49.214;12.276;2024-03-07T09:10:22;4.80;78.90
48994;DHT22;34804;49.214;12.276;2024-03-07T09:12:51;5.10;79.40
48994;DHT22;34804;49.214;12.276;2024-03-07T09:15:19;5.10;79.00
48994;DHT22;34804;49.214;12.276;2024-03-07T09:17:49;5.10;77.80
48994;DHT22;34804;49.214;12.276;2024-03-07T09:20:16;5.20;76.60
48994;DHT22;34804;49.214;12.276;2024-03-07T09:22:44;5.30;76.40
48994;DHT22;34804;49.214;12.276;2024-03-07T09:25:11;5.30;75.70
48994;DHT22;34804;49.214;12.276;2024-03-07T09:27:40;5.50;76.60
48994;DHT22;34804;49.214;12.276;2024-03-07T09:30:08;5.60;75.90
48994;DHT22;34804;49.214;12.276;2024-03-07T09:32:39;5.70;74.50
48994;DHT22;34804;49.214;12.276;2024-03-07T09:35:10;5.80;74.10
48994;DHT22;34804;49.214;12.276;2024-03-07T09:37:42;5.80;73.90
48994;DHT22;34804;49.214;12.276;2024-03-07T09:40:10;6.10;73.80
48994;DHT22;34804;49.214;12.276;2024-03-07T09:42:46;6.20;72.80
48994;DHT22;34804;49.214;12.276;2024-03-07T09:45:20;6.30;72.40
48994;DHT22;34804;49.214;12.276;2024-03-07T09:47:49;6.40;70.40
48994;DHT22;34804;49.214;12.276;2024-03-07T09:50:19;6.30;70.50
48994;DHT22;34804;49.214;12.276;2024-03-07T09:52:50;6.50;69.70
48994;DHT22;34804;49.214;12.276;2024-03-07T09:55:19;6.50;70.20
48994;DHT22;34804;49.214;12.276;2024-03-07T09:57:47;6.70;69.30
48994;DHT22;34804;49.214;12.276;2024-03-07T10:00:20;6.40;68.70
48994;DHT22;34804;49.214;12.276;2024-03-07T10:02:57;6.20;69.30
48994;DHT22;34804;49.214;12.276;2024-03-07T10:05:27;6.40;69.90
48994;DHT22;34804;49.214;12.276;2024-03-07T10:07:55;6.60;69.50
48994;DHT22;34804;49.214;12.276;2024-03-07T10:10:26;6.70;68.90
48994;DHT22;34804;49.214;12.276;2024-03-07T10:12:53;6.80;68.40
48994;DHT22;34804;49.214;12.276;2024-03-07T10:15:20;7.00;67.80
48994;DHT22;34804;49.214;12.276;2024-03-07T10:17:49;6.90;67.90
48994;DHT22;34804;49.214;12.276;2024-03-07T10:20:18;7.00;67.80
48994;DHT22;34804;49.214;12.276;2024-03-07T10:22:49;7.10;68.00
48994;DHT22;34804;49.214;12.276;2024-03-07T10:25:20;6.60;67.80
48994;DHT22;34804;49.214;12.276;2024-03-07T10:27:51;6.60;68.40
48994;DHT22;34804;49.214;12.276;2024-03-07T10:30:17;6.50;68.50
48994;DHT22;34804;49.214;12.276;2024-03-07T10:32:54;6.50;68.00
48994;DHT22;34804;49.214;12.276;2024-03-07T10:35:22;6.60;67.60
48994;DHT22;34804;49.214;12.276;2024-03-07T10:37:55;6.90;67.80
48994;DHT22;34804;49.214;12.276;2024-03-07T10:40:22;7.00;68.20
48994;DHT22;34804;49.214;12.276;2024-03-07T10:42:49;7.40;66.50
48994;DHT22;34804;49.214;12.276;2024-03-07T10:45:20;7.60;65.90
48994;DHT22;34804;49.214;12.276;2024-03-07T10:47:55;7.60;65.70
48994;DHT22;34804;49.214;12.276;2024-03-07T10:50:41;7.90;66.20
48994;DHT22;34804;49.214;12.276;2024-03-07T11:01:23;7.90;65.70
48994;DHT22;34804;49.214;12.276;2024-03-07T11:03:52;7.80;65.30
48994;DHT22;34804;49.214;12.276;2024-03-07T11:06:20;7.40;65.10
48994;DHT22;34804;49.214;12.276;2024-03-07T11:08:47;7.20;65.80
48994;DHT22;34804;49.214;12.276;2024-03-07T11:11:15;7.30;68.00
48994;DHT22;34804;49.214;12.276;2024-03-07T11:13:42;7.10;66.20
48994;DHT22;34804;49.214;12.276;2024-03-07T11:16:11;7.10;67.30
48994;DHT22;34804;49.214;12.276;2024-03-07T11:18:40;7.00;67.40
48994;DHT22;34804;49.214;12.276;2024-03-07T11:21:07;7.10;67.30
48994;DHT22;34804;49.214;12.276;2024-03-07T11:23:35;6.80;67.10
48994;DHT22;34804;49.214;12.276;2024-03-07T11:26:07;6.70;67.50
48994;DHT22;34804;49.214;12.276;2024-03-07T11:28:36;6.70;68.60
48994;DHT22;34804;49.214;12.276;2024-03-07T11:31:13;6.60;68.10
48994;DHT22;34804;49.214;12.276;2024-03-07T11:33:41;6.80;68.60
48994;DHT22;34804;49.214;12.276;2024-03-07T11:36:09;6.90;68.80
48994;DHT22;34804;49.214;12.276;2024-03-07T11:38:47;6.90;67.80
48994;DHT22;34804;49.214;12.276;2024-03-07T11:41:19;6.80;67.40
48994;DHT22;34804;49.214;12.276;2024-03-07T11:43:46;6.60;68.50
48994;DHT22;34804;49.214;12.276;2024-03-07T11:46:13;6.80;68.40
48994;DHT22;34804;49.214;12.276;2024-03-07T11:48:44;7.00;67.50
48994;DHT22;34804;49.214;12.276;2024-03-07T11:51:17;7.00;67.60
48994;DHT22;34804;49.214;12.276;2024-03-07T11:53:44;7.00;67.80
48994;DHT22;34804;49.214;12.276;2024-03-07T11:56:15;7.00;67.30
48994;DHT22;34804;49.214;12.276;2024-03-07T11:58:44;6.90;68.00
48994;DHT22;34804;49.214;12.276;2024-03-07T12:01:11;6.90;66.90
48994;DHT22;34804;49.214;12.276;2024-03-07T12:03:41;7.00;67.60
48994;DHT22;34804;49.214;12.276;2024-03-07T12:06:08;6.90;67.30
48994;DHT22;34804;49.214;12.276;2024-03-07T12:08:39;6.90;66.90
48994;DHT22;34804;49.214;12.276;2024-03-07T12:11:09;6.90;66.90
48994;DHT22;34804;49.214;12.276;2024-03-07T12:13:39;6.80;67.20
48994;DHT22;34804;49.214;12.276;2024-03-07T12:16:07;6.90;67.40
48994;DHT22;34804;49.214;12.276;2024-03-07T12:18:35;7.00;66.50
48994;DHT22;34804;49.214;12.276;2024-03-07T12:21:04;7.20;67.00
48994;DHT22;34804;49.214;12.276;2024-03-07T12:23:34;7.30;66.00
48994;DHT22;34804;49.214;12.276;2024-03-07T12:26:03;7.50;66.10
48994;DHT22;34804;49.214;12.276;2024-03-07T12:28:31;7.50;65.90
48994;DHT22;34804;49.214;12.276;2024-03-07T12:31:02;7.60;65.00
48994;DHT22;34804;49.214;12.276;2024-03-07T12:33:30;7.60;65.00
48994;DHT22;34804;49.214;12.276;2024-03-07T12:36:02;7.50;65.30
48994;DHT22;34804;49.214;12.276;2024-03-07T12:38:37;7.40;66.00
48994;DHT22;34804;49.214;12.276;2024-03-07T12:41:09;7.20;65.60
48994;DHT22;34804;49.214;12.276;2024-03-07T12:43:43;6.90;66.00
48994;DHT22;34804;49.214;12.276;2024-03-07T12:46:12;7.10;66.30
48994;DHT22;34804;49.214;12.276;2024-03-07T12:48:43;7.10;66.30
48994;DHT22;34804;49.214;12.276;2024-03-07T12:51:13;6.90;66.80
48994;DHT22;34804;49.214;12.276;2024-03-07T12:53:45;6.80;66.30
48994;DHT22;34804;49.214;12.276;2024-03-07T12:56:13;6.70;66.20
48994;DHT22;34804;49.214;12.276;2024-03-07T12:58:44;6.70;66.70
48994;DHT22;34804;49.214;12.276;2024-03-07T13:01:13;6.40;66.90
48994;DHT22;34804;49.214;12.276;2024-03-07T13:03:40;6.50;67.30
48994;DHT22;34804;49.214;12.276;2024-03-07T13:06:10;6.60;67.50
48994;DHT22;34804;49.214;12.276;2024-03-07T13:08:37;6.80;66.70
48994;DHT22;34804;49.214;12.276;2024-03-07T13:11:04;6.90;66.40
48994;DHT22;34804;49.214;12.276;2024-03-07T13:13:32;6.80;66.30
48994;DHT22;34804;49.214;12.276;2024-03-07T13:15:59;6.50;66.00
48994;DHT22;34804;49.214;12.276;2024-03-07T13:18:26;6.60;67.40
48994;DHT22;34804;49.214;12.276;2024-03-07T13:20:53;6.50;65.90
48994;DHT22;34804;49.214;12.276;2024-03-07T13:23:20;6.30;66.60
48994;DHT22;34804;49.214;12.276;2024-03-07T13:25:47;6.30;66.50
48994;DHT22;34804;49.214;12.276;2024-03-07T13:28:15;6.30;66.80
48994;DHT22;34804;49.214;12.276;2024-03-07T13:30:51;6.30;66.00
48994;DHT22;34804;49.214;12.276;2024-03-07T13:33:21;6.30;66.90
48994;DHT22;34804;49.214;12.276;2024-03-07T13:35:51;6.40;67.70
48994;DHT22;34804;49.214;12.276;2024-03-07T13:38:19;6.40;67.20
48994;DHT22;34804;49.214;12.276;2024-03-07T13:40:46;6.50;67.30
48994;DHT22;34804;49.214;12.276;2024-03-07T13:43:13;6.50;67.60
48994;DHT22;34804;49.214;12.276;2024-03-07T13:45:41;6.70;67.90
48994;DHT22;34804;49.214;12.276;2024-03-07T13:48:11;6.70;67.30
48994;DHT22;34804;49.214;12.276;2024-03-07T13:50:40;6.80;67.90
48994;DHT22;34804;49.214;12.276;2024-03-07T13:53:24;6.90;68.30
48994;DHT22;34804;49.214;12.276;2024-03-07T13:59:14;7.00;68.30
48994;DHT22;34804;49.214;12.276;2024-03-07T14:05:03;7.30;67.20
48994;DHT22;34804;49.214;12.276;2024-03-07T14:08:01;7.40;66.80
48994;DHT22;34804;49.214;12.276;2024-03-07T14:11:09;7.40;66.50
48994;DHT22;34804;49.214;12.276;2024-03-07T14:14:13;7.70;66.20
48994;DHT22;34804;49.214;12.276;2024-03-07T14:17:52;8.90;63.50
48994;DHT22;34804;49.214;12.276;2024-03-07T14:23:34;9.70;58.10
48994;DHT22;34804;49.214;12.276;2024-03-07T14:26:34;9.30;59.50
48994;DHT22;34804;49.214;12.276;2024-03-07T14:29:21;8.90;59.80
48994;DHT22;34804;49.214;12.276;2024-03-07T14:31:53;8.20;62.40
48994;DHT22;34804;49.214;12.276;2024-03-07T14:37:19;8.00;64.00
48994;DHT22;34804;49.214;12.276;2024-03-07T14:39:51;7.70;63.70
48994;DHT22;34804;49.214;12.276;2024-03-07T14:42:19;7.60;65.50
48994;DHT22;34804;49.214;12.276;2024-03-07T14:44:46;7.30;67.00
48994;DHT22;34804;49.214;12.276;2024-03-07T14:47:19;7.60;65.80
48994;DHT22;34804;49.214;12.276;2024-03-07T14:49:46;7.40;66.00
48994;DHT22;34804;49.214;12.276;2024-03-07T14:52:13;7.40;66.10
48994;DHT22;34804;49.214;12.276;2024-03-07T14:54:42;7.70;66.10
48994;DHT22;34804;49.214;12.276;2024-03-07T14:57:09;7.80;65.10
48994;DHT22;34804;49.214;12.276;2024-03-07T14:59:37;7.90;64.60
48994;DHT22;34804;49.214;12.276;2024-03-07T15:02:07;7.90;64.90
48994;DHT22;34804;49.214;12.276;2024-03-07T15:04:38;7.90;65.10
48994;DHT22;34804;49.214;12.276;2024-03-07T15:07:06;8.00;65.20
48994;DHT22;34804;49.214;12.276;2024-03-07T15:09:36;7.80;65.20
48994;DHT22;34804;49.214;12.276;2024-03-07T15:12:05;7.80;65.60
48994;DHT22;34804;49.214;12.276;2024-03-07T15:14:33;7.90;64.70
48994;DHT22;34804;49.214;12.276;2024-03-07T15:17:06;7.90;64.40
48994;DHT22;34804;49.214;12.276;2024-03-07T15:19:33;8.50;63.70
48994;DHT22;34804;49.214;12.276;2024-03-07T15:22:01;8.60;62.50
48994;DHT22;34804;49.214;12.276;2024-03-07T15:24:30;8.40;63.10
48994;DHT22;34804;49.214;12.276;2024-03-07T15:26:58;7.90;64.60
48994;DHT22;34804;49.214;12.276;2024-03-07T15:29:25;7.90;64.70
48994;DHT22;34804;49.214;12.276;2024-03-07T15:31:51;8.00;64.00
48994;DHT22;34804;49.214;12.276;2024-03-07T15:34:18;8.20;63.30
48994;DHT22;34804;49.214;12.276;2024-03-07T15:36:46;7.90;62.80
48994;DHT22;34804;49.214;12.276;2024-03-07T15:39:23;7.50;64.10
48994;DHT22;34804;49.214;12.276;2024-03-07T15:41:53;7.20;65.50
48994;DHT22;34804;49.214;12.276;2024-03-07T15:44:28;6.80;65.30
48994;DHT22;34804;49.214;12.276;2024-03-07T15:47:01;6.80;66.30
48994;DHT22;34804;49.214;12.276;2024-03-07T15:49:38;6.60;66.50
48994;DHT22;34804;49.214;12.276;2024-03-07T15:52:08;6.70;66.60
48994;DHT22;34804;49.214;12.276;2024-03-07T15:54:37;6.80;66.20
48994;DHT22;34804;49.214;12.276;2024-03-07T15:57:07;7.20;65.30